sensor_id;sensor_type;location;lat;lon;timestamp;P1;durP1;ratioP1;P2;durP2;ratioP2
67528;SDS011;54366;51.980;5.856;2023-04-25T00:02:09;7.40;;;2.47;;
67528;SDS011;54366;51.980;5.856;2023-04-25T00:04:42;9.55;;;2.92;;
67528;SDS011;54366;51.980;5.856;2023-04-25T00:07:15;7.50;;;2.55;;
67528;SDS011;54366;51.980;5.856;2023-04-25T00:09:42;6.88;;;2.50;;
67528;SDS011;54366;51.980;5.856;2023-04-25T00:12:21;8.43;;;2.10;;
67528;SDS011;54366;51.980;5.856;2023-04-25T00:14:55;5.80;;;1.90;;
67528;SDS011;54366;51.980;5.856;2023-04-25T00:17:32;6.50;;;2.17;;
67528;SDS011;54366;51.980;5.856;2023-04-25T00:19:58;5.63;;;2.10;;
67528;SDS011;54366;51.980;5.856;2023-04-25T00:22:31;5.00;;;2.05;;
67528;SDS011;54366;51.980;5.856;2023-04-25T00:25:06;7.60;;;2.38;;
67528;SDS011;54366;51.980;5.856;2023-04-25T00:27:40;7.63;;;2.25;;
67528;SDS011;54366;51.980;5.856;2023-04-25T00:30:14;9.90;;;2.80;;
67528;SDS011;54366;51.980;5.856;2023-04-25T00:32:47;4.72;;;2.22;;
67528;SDS011;54366;51.980;5.856;2023-04-25T00:35:14;7.30;;;2.25;;
67528;SDS011;54366;51.980;5.856;2023-04-25T00:37:47;5.72;;;2.25;;
67528;SDS011;54366;51.980;5.856;2023-04-25T00:40:20;6.03;;;2.10;;
67528;SDS011;54366;51.980;5.856;2023-04-25T00:42:53;6.30;;;2.38;;
67528;SDS011;54366;51.980;5.856;2023-04-25T00:45:27;7.68;;;2.65;;
67528;SDS011;54366;51.980;5.856;2023-04-25T00:48:04;7.80;;;2.35;;
67528;SDS011;54366;51.980;5.856;2023-04-25T00:50:37;7.05;;;2.50;;
67528;SDS011;54366;51.980;5.856;2023-04-25T00:53:10;8.73;;;2.53;;
67528;SDS011;54366;51.980;5.856;2023-04-25T00:55:36;5.97;;;2.00;;
67528;SDS011;54366;51.980;5.856;2023-04-25T00:58:09;5.75;;;2.33;;
67528;SDS011;54366;51.980;5.856;2023-04-25T01:00:35;9.18;;;2.65;;
67528;SDS011;54366;51.980;5.856;2023-04-25T01:03:09;8.00;;;2.55;;
67528;SDS011;54366;51.980;5.856;2023-04-25T01:05:42;5.93;;;2.10;;
67528;SDS011;54366;51.980;5.856;2023-04-25T01:08:09;6.50;;;2.50;;
67528;SDS011;54366;51.980;5.856;2023-04-25T01:10:48;6.53;;;2.50;;
67528;SDS011;54366;51.980;5.856;2023-04-25T01:13:28;8.45;;;2.97;;
67528;SDS011;54366;51.980;5.856;2023-04-25T01:15:54;8.23;;;2.70;;
67528;SDS011;54366;51.980;5.856;2023-04-25T01:18:27;7.70;;;3.10;;
67528;SDS011;54366;51.980;5.856;2023-04-25T01:21:18;5.35;;;2.60;;
67528;SDS011;54366;51.980;5.856;2023-04-25T01:23:51;7.00;;;2.80;;
67528;SDS011;54366;51.980;5.856;2023-04-25T01:26:25;8.93;;;2.88;;
67528;SDS011;54366;51.980;5.856;2023-04-25T01:28:59;6.32;;;2.72;;
67528;SDS011;54366;51.980;5.856;2023-04-25T01:31:32;10.93;;;2.95;;
67528;SDS011;54366;51.980;5.856;2023-04-25T01:34:08;6.32;;;2.65;;
67528;SDS011;54366;51.980;5.856;2023-04-25T01:36:41;8.05;;;2.78;;
67528;SDS011;54366;51.980;5.856;2023-04-25T01:39:14;8.00;;;2.70;;
67528;SDS011;54366;51.980;5.856;2023-04-25T01:41:48;6.65;;;2.38;;
67528;SDS011;54366;51.980;5.856;2023-04-25T01:44:21;8.65;;;2.65;;
67528;SDS011;54366;51.980;5.856;2023-04-25T01:46:54;6.72;;;2.42;;
67528;SDS011;54366;51.980;5.856;2023-04-25T01:49:27;7.77;;;2.60;;
67528;SDS011;54366;51.980;5.856;2023-04-25T01:51:54;5.15;;;2.25;;
67528;SDS011;54366;51.980;5.856;2023-04-25T01:54:27;7.95;;;3.13;;
67528;SDS011;54366;51.980;5.856;2023-04-25T01:57:00;9.65;;;2.80;;
67528;SDS011;54366;51.980;5.856;2023-04-25T01:59:36;7.65;;;2.83;;
67528;SDS011;54366;51.980;5.856;2023-04-25T02:02:28;9.05;;;2.70;;
67528;SDS011;54366;51.980;5.856;2023-04-25T02:05:01;6.45;;;2.45;;
67528;SDS011;54366;51.980;5.856;2023-04-25T02:07:37;8.13;;;2.60;;
67528;SDS011;54366;51.980;5.856;2023-04-25T02:10:16;8.82;;;2.92;;
67528;SDS011;54366;51.980;5.856;2023-04-25T02:13:07;8.52;;;3.03;;
67528;SDS011;54366;51.980;5.856;2023-04-25T02:16:09;8.75;;;2.55;;
67528;SDS011;54366;51.980;5.856;2023-04-25T02:18:42;7.63;;;2.75;;
67528;SDS011;54366;51.980;5.856;2023-04-25T02:21:10;5.68;;;2.80;;
67528;SDS011;54366;51.980;5.856;2023-04-25T02:23:44;8.35;;;2.60;;
67528;SDS011;54366;51.980;5.856;2023-04-25T02:26:21;9.43;;;2.88;;
67528;SDS011;54366;51.980;5.856;2023-04-25T02:28:56;7.93;;;2.50;;
67528;SDS011;54366;51.980;5.856;2023-04-25T02:31:30;6.78;;;2.92;;
67528;SDS011;54366;51.980;5.856;2023-04-25T02:33:57;8.07;;;2.65;;
67528;SDS011;54366;51.980;5.856;2023-04-25T02:36:30;9.07;;;2.63;;
67528;SDS011;54366;51.980;5.856;2023-04-25T02:39:06;7.43;;;2.30;;
67528;SDS011;54366;51.980;5.856;2023-04-25T02:41:32;7.35;;;2.53;;
67528;SDS011;54366;51.980;5.856;2023-04-25T02:44:05;11.32;;;2.88;;
67528;SDS011;54366;51.980;5.856;2023-04-25T02:46:31;10.32;;;3.00;;
67528;SDS011;54366;51.980;5.856;2023-04-25T02:49:04;6.93;;;2.42;;
67528;SDS011;54366;51.980;5.856;2023-04-25T02:51:37;9.35;;;2.50;;
67528;SDS011;54366;51.980;5.856;2023-04-25T02:54:03;8.90;;;2.88;;
67528;SDS011;54366;51.980;5.856;2023-04-25T02:56:41;6.18;;;2.50;;
67528;SDS011;54366;51.980;5.856;2023-04-25T02:59:19;9.68;;;3.13;;
67528;SDS011;54366;51.980;5.856;2023-04-25T03:01:52;9.13;;;2.78;;
67528;SDS011;54366;51.980;5.856;2023-04-25T03:04:25;7.00;;;2.78;;
67528;SDS011;54366;51.980;5.856;2023-04-25T03:06:51;10.15;;;2.95;;
67528;SDS011;54366;51.980;5.856;2023-04-25T03:09:25;7.70;;;2.80;;
67528;SDS011;54366;51.980;5.856;2023-04-25T03:12:11;8.90;;;3.05;;
67528;SDS011;54366;51.980;5.856;2023-04-25T03:14:44;5.85;;;2.88;;
67528;SDS011;54366;51.980;5.856;2023-04-25T03:17:17;10.05;;;2.97;;
67528;SDS011;54366;51.980;5.856;2023-04-25T03:19:50;7.70;;;3.10;;
67528;SDS011;54366;51.980;5.856;2023-04-25T03:22:23;9.45;;;3.03;;
67528;SDS011;54366;51.980;5.856;2023-04-25T03:24:56;8.82;;;2.90;;
67528;SDS011;54366;51.980;5.856;2023-04-25T03:27:29;9.27;;;2.72;;
67528;SDS011;54366;51.980;5.856;2023-04-25T03:30:02;10.07;;;2.95;;
67528;SDS011;54366;51.980;5.856;2023-04-25T03:35:02;9.13;;;3.13;;
67528;SDS011;54366;51.980;5.856;2023-04-25T03:37:36;8.17;;;3.30;;
67528;SDS011;54366;51.980;5.856;2023-04-25T03:40:02;8.95;;;2.97;;
67528;SDS011;54366;51.980;5.856;2023-04-25T03:43:01;8.93;;;2.80;;
67528;SDS011;54366;51.980;5.856;2023-04-25T03:45:35;12.18;;;3.13;;
67528;SDS011;54366;51.980;5.856;2023-04-25T03:48:02;7.22;;;2.60;;
67528;SDS011;54366;51.980;5.856;2023-04-25T03:50:35;7.30;;;2.40;;
67528;SDS011;54366;51.980;5.856;2023-04-25T03:53:08;8.85;;;3.08;;
67528;SDS011;54366;51.980;5.856;2023-04-25T03:55:54;9.52;;;3.15;;
67528;SDS011;54366;51.980;5.856;2023-04-25T03:58:30;11.65;;;3.17;;
67528;SDS011;54366;51.980;5.856;2023-04-25T04:00:57;8.13;;;2.70;;
67528;SDS011;54366;51.980;5.856;2023-04-25T04:03:31;8.95;;;2.47;;
67528;SDS011;54366;51.980;5.856;2023-04-25T04:06:04;9.43;;;2.80;;
67528;SDS011;54366;51.980;5.856;2023-04-25T04:08:41;7.43;;;2.40;;
67528;SDS011;54366;51.980;5.856;2023-04-25T04:11:14;10.35;;;3.13;;
67528;SDS011;54366;51.980;5.856;2023-04-25T04:13:55;11.48;;;2.67;;
67528;SDS011;54366;51.980;5.856;2023-04-25T04:16:28;8.35;;;2.50;;
67528;SDS011;54366;51.980;5.856;2023-04-25T04:19:01;8.38;;;2.58;;
67528;SDS011;54366;51.980;5.856;2023-04-25T04:21:35;8.73;;;3.08;;
67528;SDS011;54366;51.980;5.856;2023-04-25T04:26:49;6.68;;;2.30;;
67528;SDS011;54366;51.980;5.856;2023-04-25T04:29:31;7.80;;;2.60;;
67528;SDS011;54366;51.980;5.856;2023-04-25T04:32:14;7.35;;;2.90;;
67528;SDS011;54366;51.980;5.856;2023-04-25T04:34:49;6.50;;;2.28;;
67528;SDS011;54366;51.980;5.856;2023-04-25T04:37:18;8.80;;;2.78;;
67528;SDS011;54366;51.980;5.856;2023-04-25T04:39:51;9.27;;;2.50;;
67528;SDS011;54366;51.980;5.856;2023-04-25T04:42:42;9.40;;;2.78;;
67528;SDS011;54366;51.980;5.856;2023-04-25T04:45:33;6.30;;;2.40;;
67528;SDS011;54366;51.980;5.856;2023-04-25T04:48:17;4.82;;;2.38;;
67528;SDS011;54366;51.980;5.856;2023-04-25T04:51:13;10.45;;;3.30;;
67528;SDS011;54366;51.980;5.856;2023-04-25T04:54:04;10.60;;;3.10;;
67528;SDS011;54366;51.980;5.856;2023-04-25T04:57:03;6.15;;;2.50;;
67528;SDS011;54366;51.980;5.856;2023-04-25T04:59:57;9.80;;;2.83;;
67528;SDS011;54366;51.980;5.856;2023-04-25T05:03:06;6.28;;;2.42;;
67528;SDS011;54366;51.980;5.856;2023-04-25T05:05:57;7.53;;;2.70;;
67528;SDS011;54366;51.980;5.856;2023-04-25T05:08:48;7.60;;;2.50;;
67528;SDS011;54366;51.980;5.856;2023-04-25T05:11:45;7.05;;;2.72;;
67528;SDS011;54366;51.980;5.856;2023-04-25T05:14:28;7.10;;;2.40;;
67528;SDS011;54366;51.980;5.856;2023-04-25T05:17:16;7.53;;;2.22;;
67528;SDS011;54366;51.980;5.856;2023-04-25T05:20:15;4.88;;;2.22;;
67528;SDS011;54366;51.980;5.856;2023-04-25T05:23:07;5.97;;;2.20;;
67528;SDS011;54366;51.980;5.856;2023-04-25T05:26:00;7.30;;;2.50;;
67528;SDS011;54366;51.980;5.856;2023-04-25T05:29:02;9.15;;;2.80;;
67528;SDS011;54366;51.980;5.856;2023-04-25T05:31:55;7.40;;;2.60;;
67528;SDS011;54366;51.980;5.856;2023-04-25T05:34:29;6.90;;;2.70;;
67528;SDS011;54366;51.980;5.856;2023-04-25T05:37:05;9.25;;;3.30;;
67528;SDS011;54366;51.980;5.856;2023-04-25T05:39:50;9.00;;;3.10;;
67528;SDS011;54366;51.980;5.856;2023-04-25T05:42:40;9.98;;;3.38;;
67528;SDS011;54366;51.980;5.856;2023-04-25T05:45:31;8.88;;;3.00;;
67528;SDS011;54366;51.980;5.856;2023-04-25T05:48:13;9.77;;;3.38;;
67528;SDS011;54366;51.980;5.856;2023-04-25T05:50:57;5.97;;;2.30;;
67528;SDS011;54366;51.980;5.856;2023-04-25T05:53:53;9.48;;;3.17;;
67528;SDS011;54366;51.980;5.856;2023-04-25T05:56:26;15.02;;;3.88;;
67528;SDS011;54366;51.980;5.856;2023-04-25T05:59:00;9.32;;;3.10;;
67528;SDS011;54366;51.980;5.856;2023-04-25T06:01:33;8.30;;;2.67;;
67528;SDS011;54366;51.980;5.856;2023-04-25T06:04:06;12.80;;;3.35;;
67528;SDS011;54366;51.980;5.856;2023-04-25T06:06:39;9.02;;;3.72;;
67528;SDS011;54366;51.980;5.856;2023-04-25T06:09:05;11.50;;;3.30;;
67528;SDS011;54366;51.980;5.856;2023-04-25T06:11:38;8.20;;;3.25;;
67528;SDS011;54366;51.980;5.856;2023-04-25T06:14:11;8.90;;;3.10;;
67528;SDS011;54366;51.980;5.856;2023-04-25T06:16:51;8.88;;;2.75;;
67528;SDS011;54366;51.980;5.856;2023-04-25T06:19:26;9.85;;;2.83;;
67528;SDS011;54366;51.980;5.856;2023-04-25T06:21:53;7.10;;;2.58;;
67528;SDS011;54366;51.980;5.856;2023-04-25T06:24:26;5.22;;;2.00;;
67528;SDS011;54366;51.980;5.856;2023-04-25T06:26:59;6.93;;;2.90;;
67528;SDS011;54366;51.980;5.856;2023-04-25T06:29:32;7.82;;;2.55;;
67528;SDS011;54366;51.980;5.856;2023-04-25T06:32:05;8.05;;;2.88;;
67528;SDS011;54366;51.980;5.856;2023-04-25T06:34:38;8.38;;;2.83;;
67528;SDS011;54366;51.980;5.856;2023-04-25T06:37:11;6.22;;;2.38;;
67528;SDS011;54366;51.980;5.856;2023-04-25T06:39:37;8.77;;;2.88;;
67528;SDS011;54366;51.980;5.856;2023-04-25T06:42:10;5.40;;;2.45;;
67528;SDS011;54366;51.980;5.856;2023-04-25T06:44:45;8.32;;;2.55;;
67528;SDS011;54366;51.980;5.856;2023-04-25T06:47:19;7.90;;;2.65;;
67528;SDS011;54366;51.980;5.856;2023-04-25T06:49:52;5.10;;;2.70;;
67528;SDS011;54366;51.980;5.856;2023-04-25T06:52:25;7.30;;;3.22;;
67528;SDS011;54366;51.980;5.856;2023-04-25T06:54:53;6.38;;;2.65;;
67528;SDS011;54366;51.980;5.856;2023-04-25T06:57:56;9.07;;;2.95;;
67528;SDS011;54366;51.980;5.856;2023-04-25T07:01:01;8.13;;;2.60;;
67528;SDS011;54366;51.980;5.856;2023-04-25T07:03:36;5.18;;;2.13;;
67528;SDS011;54366;51.980;5.856;2023-04-25T07:06:07;6.50;;;2.00;;
67528;SDS011;54366;51.980;5.856;2023-04-25T07:08:41;5.40;;;2.05;;
67528;SDS011;54366;51.980;5.856;2023-04-25T07:11:20;5.18;;;2.10;;
67528;SDS011;54366;51.980;5.856;2023-04-25T07:13:53;7.35;;;2.47;;
67528;SDS011;54366;51.980;5.856;2023-04-25T07:16:33;5.70;;;2.15;;
67528;SDS011;54366;51.980;5.856;2023-04-25T07:19:06;8.05;;;2.00;;
67528;SDS011;54366;51.980;5.856;2023-04-25T07:21:39;7.00;;;2.33;;
67528;SDS011;54366;51.980;5.856;2023-04-25T07:24:06;8.18;;;3.67;;
67528;SDS011;54366;51.980;5.856;2023-04-25T07:26:44;7.30;;;2.65;;
67528;SDS011;54366;51.980;5.856;2023-04-25T07:29:44;5.32;;;3.70;;
67528;SDS011;54366;51.980;5.856;2023-04-25T07:32:18;8.43;;;2.80;;
67528;SDS011;54366;51.980;5.856;2023-04-25T07:34:51;9.43;;;2.20;;
67528;SDS011;54366;51.980;5.856;2023-04-25T07:37:17;5.00;;;1.70;;
67528;SDS011;54366;51.980;5.856;2023-04-25T07:40:05;8.02;;;2.00;;
67528;SDS011;54366;51.980;5.856;2023-04-25T07:42:45;7.60;;;1.95;;
67528;SDS011;54366;51.980;5.856;2023-04-25T07:45:32;6.97;;;1.70;;
67528;SDS011;54366;51.980;5.856;2023-04-25T07:48:05;6.35;;;2.00;;
67528;SDS011;54366;51.980;5.856;2023-04-25T07:50:40;6.70;;;1.52;;
67528;SDS011;54366;51.980;5.856;2023-04-25T07:53:06;4.95;;;1.60;;
67528;SDS011;54366;51.980;5.856;2023-04-25T07:55:46;4.43;;;1.30;;
67528;SDS011;54366;51.980;5.856;2023-04-25T07:58:20;4.75;;;1.70;;
67528;SDS011;54366;51.980;5.856;2023-04-25T08:01:00;8.18;;;2.00;;
67528;SDS011;54366;51.980;5.856;2023-04-25T08:06:47;6.22;;;1.90;;
67528;SDS011;54366;51.980;5.856;2023-04-25T08:09:24;8.73;;;2.13;;
67528;SDS011;54366;51.980;5.856;2023-04-25T08:12:03;9.23;;;1.83;;
67528;SDS011;54366;51.980;5.856;2023-04-25T08:14:43;8.73;;;1.67;;
67528;SDS011;54366;51.980;5.856;2023-04-25T08:17:10;7.13;;;1.33;;
67528;SDS011;54366;51.980;5.856;2023-04-25T08:19:44;8.52;;;1.80;;
67528;SDS011;54366;51.980;5.856;2023-04-25T08:22:24;6.32;;;1.40;;
67528;SDS011;54366;51.980;5.856;2023-04-25T08:25:27;5.88;;;1.40;;
67528;SDS011;54366;51.980;5.856;2023-04-25T08:28:00;7.90;;;1.25;;
67528;SDS011;54366;51.980;5.856;2023-04-25T08:30:36;5.63;;;1.08;;
67528;SDS011;54366;51.980;5.856;2023-04-25T08:33:13;4.60;;;1.05;;
67528;SDS011;54366;51.980;5.856;2023-04-25T08:36:03;5.55;;;1.10;;
67528;SDS011;54366;51.980;5.856;2023-04-25T08:38:36;3.38;;;1.30;;
67528;SDS011;54366;51.980;5.856;2023-04-25T08:41:25;6.78;;;1.58;;
67528;SDS011;54366;51.980;5.856;2023-04-25T08:43:58;5.88;;;1.20;;
67528;SDS011;54366;51.980;5.856;2023-04-25T08:46:40;3.90;;;1.13;;
67528;SDS011;54366;51.980;5.856;2023-04-25T08:49:20;5.60;;;1.20;;
67528;SDS011;54366;51.980;5.856;2023-04-25T08:51:53;7.03;;;1.52;;
67528;SDS011;54366;51.980;5.856;2023-04-25T08:54:32;2.78;;;0.80;;
67528;SDS011;54366;51.980;5.856;2023-04-25T08:59:39;3.97;;;0.70;;
67528;SDS011;54366;51.980;5.856;2023-04-25T09:02:17;4.68;;;1.23;;
67528;SDS011;54366;51.980;5.856;2023-04-25T09:04:52;6.70;;;1.23;;
67528;SDS011;54366;51.980;5.856;2023-04-25T09:07:20;5.50;;;1.08;;
67528;SDS011;54366;51.980;5.856;2023-04-25T09:09:54;4.55;;;1.30;;
67528;SDS011;54366;51.980;5.856;2023-04-25T09:12:33;4.70;;;1.00;;
67528;SDS011;54366;51.980;5.856;2023-04-25T09:15:08;4.18;;;0.90;;
67528;SDS011;54366;51.980;5.856;2023-04-25T09:17:58;6.17;;;1.10;;
67528;SDS011;54366;51.980;5.856;2023-04-25T09:20:43;5.45;;;1.20;;
67528;SDS011;54366;51.980;5.856;2023-04-25T09:23:18;3.90;;;0.93;;
67528;SDS011;54366;51.980;5.856;2023-04-25T09:25:55;7.57;;;1.17;;
67528;SDS011;54366;51.980;5.856;2023-04-25T09:28:28;2.58;;;0.60;;
67528;SDS011;54366;51.980;5.856;2023-04-25T09:30:55;6.18;;;1.02;;
67528;SDS011;54366;51.980;5.856;2023-04-25T09:33:37;3.17;;;0.70;;
67528;SDS011;54366;51.980;5.856;2023-04-25T09:36:11;4.03;;;1.00;;
67528;SDS011;54366;51.980;5.856;2023-04-25T09:39:07;3.45;;;0.70;;
67528;SDS011;54366;51.980;5.856;2023-04-25T09:41:56;2.95;;;0.85;;
67528;SDS011;54366;51.980;5.856;2023-04-25T09:44:30;3.67;;;0.82;;
67528;SDS011;54366;51.980;5.856;2023-04-25T09:47:03;3.55;;;0.70;;
67528;SDS011;54366;51.980;5.856;2023-04-25T09:49:38;2.55;;;0.90;;
67528;SDS011;54366;51.980;5.856;2023-04-25T09:52:17;4.95;;;1.00;;
67528;SDS011;54366;51.980;5.856;2023-04-25T09:55:08;5.70;;;1.05;;
67528;SDS011;54366;51.980;5.856;2023-04-25T09:57:43;3.10;;;0.90;;
67528;SDS011;54366;51.980;5.856;2023-04-25T10:00:22;4.03;;;1.27;;
67528;SDS011;54366;51.980;5.856;2023-04-25T10:02:56;2.20;;;0.50;;
67528;SDS011;54366;51.980;5.856;2023-04-25T10:05:55;3.22;;;0.73;;
67528;SDS011;54366;51.980;5.856;2023-04-25T10:08:32;5.20;;;1.15;;
67528;SDS011;54366;51.980;5.856;2023-04-25T10:11:00;3.15;;;0.77;;
67528;SDS011;54366;51.980;5.856;2023-04-25T10:13:37;3.67;;;0.90;;
67528;SDS011;54366;51.980;5.856;2023-04-25T10:16:17;4.72;;;0.90;;
67528;SDS011;54366;51.980;5.856;2023-04-25T10:18:44;4.30;;;1.10;;
67528;SDS011;54366;51.980;5.856;2023-04-25T10:21:17;4.05;;;0.98;;
67528;SDS011;54366;51.980;5.856;2023-04-25T10:23:52;3.85;;;0.77;;
67528;SDS011;54366;51.980;5.856;2023-04-25T10:26:25;2.85;;;0.90;;
67528;SDS011;54366;51.980;5.856;2023-04-25T10:28:59;3.28;;;0.55;;
67528;SDS011;54366;51.980;5.856;2023-04-25T10:31:33;2.03;;;0.82;;
67528;SDS011;54366;51.980;5.856;2023-04-25T10:34:16;3.20;;;0.63;;
67528;SDS011;54366;51.980;5.856;2023-04-25T10:36:50;2.15;;;0.90;;
67528;SDS011;54366;51.980;5.856;2023-04-25T10:39:27;3.60;;;0.85;;
67528;SDS011;54366;51.980;5.856;2023-04-25T10:42:01;5.00;;;0.90;;
67528;SDS011;54366;51.980;5.856;2023-04-25T10:44:28;7.93;;;1.25;;
67528;SDS011;54366;51.980;5.856;2023-04-25T10:47:02;3.70;;;1.00;;
67528;SDS011;54366;51.980;5.856;2023-04-25T10:49:36;4.70;;;0.73;;
67528;SDS011;54366;51.980;5.856;2023-04-25T10:57:44;3.03;;;0.60;;
67528;SDS011;54366;51.980;5.856;2023-04-25T11:00:22;2.25;;;0.50;;
67528;SDS011;54366;51.980;5.856;2023-04-25T11:02:59;1.63;;;0.30;;
67528;SDS011;54366;51.980;5.856;2023-04-25T11:05:33;1.75;;;0.65;;
67528;SDS011;54366;51.980;5.856;2023-04-25T11:08:10;2.13;;;0.60;;
67528;SDS011;54366;51.980;5.856;2023-04-25T11:10:46;2.55;;;0.73;;
67528;SDS011;54366;51.980;5.856;2023-04-25T11:13:28;3.35;;;0.75;;
67528;SDS011;54366;51.980;5.856;2023-04-25T11:16:02;1.58;;;0.50;;
67528;SDS011;54366;51.980;5.856;2023-04-25T11:18:28;1.92;;;0.50;;
67528;SDS011;54366;51.980;5.856;2023-04-25T11:21:02;2.10;;;0.65;;
67528;SDS011;54366;51.980;5.856;2023-04-25T11:23:35;5.20;;;0.70;;
67528;SDS011;54366;51.980;5.856;2023-04-25T11:26:08;3.15;;;0.70;;
67528;SDS011;54366;51.980;5.856;2023-04-25T11:28:34;3.22;;;0.90;;
67528;SDS011;54366;51.980;5.856;2023-04-25T11:31:07;3.65;;;0.85;;
67528;SDS011;54366;51.980;5.856;2023-04-25T11:33:41;3.33;;;0.65;;
67528;SDS011;54366;51.980;5.856;2023-04-25T11:36:14;2.55;;;0.70;;
67528;SDS011;54366;51.980;5.856;2023-04-25T11:38:47;5.35;;;0.82;;
67528;SDS011;54366;51.980;5.856;2023-04-25T11:41:20;3.65;;;0.77;;
67528;SDS011;54366;51.980;5.856;2023-04-25T11:43:54;3.83;;;0.52;;
67528;SDS011;54366;51.980;5.856;2023-04-25T11:46:21;4.90;;;0.88;;
67528;SDS011;54366;51.980;5.856;2023-04-25T11:48:54;2.83;;;0.80;;
67528;SDS011;54366;51.980;5.856;2023-04-25T11:51:29;2.58;;;0.80;;
67528;SDS011;54366;51.980;5.856;2023-04-25T11:54:03;3.88;;;0.75;;
67528;SDS011;54366;51.980;5.856;2023-04-25T11:56:37;1.23;;;0.60;;
67528;SDS011;54366;51.980;5.856;2023-04-25T11:59:14;2.85;;;0.80;;
67528;SDS011;54366;51.980;5.856;2023-04-25T12:01:48;4.65;;;0.80;;
67528;SDS011;54366;51.980;5.856;2023-04-25T12:04:22;3.17;;;0.50;;
67528;SDS011;54366;51.980;5.856;2023-04-25T12:06:56;3.25;;;0.70;;
67528;SDS011;54366;51.980;5.856;2023-04-25T12:09:30;3.85;;;0.90;;
67528;SDS011;54366;51.980;5.856;2023-04-25T12:12:10;3.35;;;1.20;;
67528;SDS011;54366;51.980;5.856;2023-04-25T12:14:56;5.25;;;1.15;;
67528;SDS011;54366;51.980;5.856;2023-04-25T12:17:40;3.92;;;0.95;;
67528;SDS011;54366;51.980;5.856;2023-04-25T12:20:08;3.03;;;0.93;;
67528;SDS011;54366;51.980;5.856;2023-04-25T12:22:44;4.13;;;0.68;;
67528;SDS011;54366;51.980;5.856;2023-04-25T12:25:40;2.22;;;0.50;;
67528;SDS011;54366;51.980;5.856;2023-04-25T12:28:16;2.90;;;0.60;;
67528;SDS011;54366;51.980;5.856;2023-04-25T12:31:03;1.75;;;0.40;;
67528;SDS011;54366;51.980;5.856;2023-04-25T12:33:37;3.15;;;0.85;;
67528;SDS011;54366;51.980;5.856;2023-04-25T12:36:11;2.35;;;0.73;;
67528;SDS011;54366;51.980;5.856;2023-04-25T12:38:45;3.58;;;1.15;;
67528;SDS011;54366;51.980;5.856;2023-04-25T12:41:18;3.72;;;1.13;;
67528;SDS011;54366;51.980;5.856;2023-04-25T12:43:44;3.65;;;0.82;;
67528;SDS011;54366;51.980;5.856;2023-04-25T12:46:17;2.10;;;0.80;;
67528;SDS011;54366;51.980;5.856;2023-04-25T12:48:43;1.75;;;0.73;;
67528;SDS011;54366;51.980;5.856;2023-04-25T12:51:16;4.93;;;0.80;;
67528;SDS011;54366;51.980;5.856;2023-04-25T12:53:42;5.22;;;0.88;;
67528;SDS011;54366;51.980;5.856;2023-04-25T12:56:15;3.30;;;0.80;;
67528;SDS011;54366;51.980;5.856;2023-04-25T12:58:48;2.78;;;0.63;;
67528;SDS011;54366;51.980;5.856;2023-04-25T13:01:21;2.50;;;0.80;;
67528;SDS011;54366;51.980;5.856;2023-04-25T13:03:54;3.33;;;0.60;;
67528;SDS011;54366;51.980;5.856;2023-04-25T13:06:21;4.55;;;0.98;;
67528;SDS011;54366;51.980;5.856;2023-04-25T13:08:54;2.17;;;0.80;;
67528;SDS011;54366;51.980;5.856;2023-04-25T13:11:27;3.50;;;0.90;;
67528;SDS011;54366;51.980;5.856;2023-04-25T13:14:00;3.50;;;0.90;;
67528;SDS011;54366;51.980;5.856;2023-04-25T13:16:33;4.65;;;1.08;;
67528;SDS011;54366;51.980;5.856;2023-04-25T13:19:06;6.25;;;1.10;;
67528;SDS011;54366;51.980;5.856;2023-04-25T13:21:43;3.03;;;0.63;;
67528;SDS011;54366;51.980;5.856;2023-04-25T13:24:16;2.58;;;0.80;;
67528;SDS011;54366;51.980;5.856;2023-04-25T13:26:43;3.65;;;0.98;;
67528;SDS011;54366;51.980;5.856;2023-04-25T13:29:16;5.20;;;0.90;;
67528;SDS011;54366;51.980;5.856;2023-04-25T13:31:49;1.90;;;0.57;;
67528;SDS011;54366;51.980;5.856;2023-04-25T13:34:22;2.00;;;0.50;;
67528;SDS011;54366;51.980;5.856;2023-04-25T13:36:55;3.60;;;1.00;;
67528;SDS011;54366;51.980;5.856;2023-04-25T13:39:28;4.32;;;1.10;;
67528;SDS011;54366;51.980;5.856;2023-04-25T13:41:54;3.03;;;0.70;;
67528;SDS011;54366;51.980;5.856;2023-04-25T13:44:28;2.55;;;0.70;;
67528;SDS011;54366;51.980;5.856;2023-04-25T13:47:01;2.63;;;1.40;;
67528;SDS011;54366;51.980;5.856;2023-04-25T13:49:35;4.20;;;1.65;;
67528;SDS011;54366;51.980;5.856;2023-04-25T13:52:08;3.03;;;1.00;;
67528;SDS011;54366;51.980;5.856;2023-04-25T13:54:41;3.28;;;0.77;;
67528;SDS011;54366;51.980;5.856;2023-04-25T13:57:14;2.30;;;0.82;;
67528;SDS011;54366;51.980;5.856;2023-04-25T13:59:40;3.00;;;0.82;;
67528;SDS011;54366;51.980;5.856;2023-04-25T14:02:13;2.90;;;0.70;;
67528;SDS011;54366;51.980;5.856;2023-04-25T14:04:46;3.22;;;0.70;;
67528;SDS011;54366;51.980;5.856;2023-04-25T14:07:19;2.80;;;0.68;;
67528;SDS011;54366;51.980;5.856;2023-04-25T14:12:19;3.53;;;0.85;;
67528;SDS011;54366;51.980;5.856;2023-04-25T14:14:58;5.45;;;0.90;;
67528;SDS011;54366;51.980;5.856;2023-04-25T14:17:38;4.05;;;0.90;;
67528;SDS011;54366;51.980;5.856;2023-04-25T14:20:12;4.20;;;0.80;;
67528;SDS011;54366;51.980;5.856;2023-04-25T14:22:45;3.63;;;0.90;;
67528;SDS011;54366;51.980;5.856;2023-04-25T14:25:18;4.65;;;0.90;;
67528;SDS011;54366;51.980;5.856;2023-04-25T14:27:51;4.03;;;0.90;;
67528;SDS011;54366;51.980;5.856;2023-04-25T14:30:18;4.22;;;0.70;;
67528;SDS011;54366;51.980;5.856;2023-04-25T14:32:51;2.83;;;0.70;;
67528;SDS011;54366;51.980;5.856;2023-04-25T14:35:24;2.58;;;0.77;;
67528;SDS011;54366;51.980;5.856;2023-04-25T14:37:57;2.95;;;1.13;;
67528;SDS011;54366;51.980;5.856;2023-04-25T14:40:30;2.67;;;0.57;;
67528;SDS011;54366;51.980;5.856;2023-04-25T14:43:03;1.73;;;0.57;;
67528;SDS011;54366;51.980;5.856;2023-04-25T14:45:36;3.30;;;0.60;;
67528;SDS011;54366;51.980;5.856;2023-04-25T14:48:09;2.58;;;0.50;;
67528;SDS011;54366;51.980;5.856;2023-04-25T14:50:42;3.03;;;0.93;;
67528;SDS011;54366;51.980;5.856;2023-04-25T14:53:15;4.07;;;0.90;;
67528;SDS011;54366;51.980;5.856;2023-04-25T14:55:48;4.40;;;0.73;;
67528;SDS011;54366;51.980;5.856;2023-04-25T14:58:21;3.75;;;0.60;;
67528;SDS011;54366;51.980;5.856;2023-04-25T15:00:48;2.45;;;0.60;;
67528;SDS011;54366;51.980;5.856;2023-04-25T15:03:21;4.07;;;1.00;;
67528;SDS011;54366;51.980;5.856;2023-04-25T15:05:55;3.42;;;1.00;;
67528;SDS011;54366;51.980;5.856;2023-04-25T15:08:21;4.25;;;0.98;;
67528;SDS011;54366;51.980;5.856;2023-04-25T15:10:54;3.65;;;0.70;;
67528;SDS011;54366;51.980;5.856;2023-04-25T15:13:27;2.17;;;0.68;;
67528;SDS011;54366;51.980;5.856;2023-04-25T15:16:06;3.10;;;0.57;;
67528;SDS011;54366;51.980;5.856;2023-04-25T15:18:39;1.45;;;0.50;;
67528;SDS011;54366;51.980;5.856;2023-04-25T15:21:12;2.97;;;0.88;;
67528;SDS011;54366;51.980;5.856;2023-04-25T15:23:39;3.67;;;0.82;;
67528;SDS011;54366;51.980;5.856;2023-04-25T15:26:12;4.97;;;1.03;;
67528;SDS011;54366;51.980;5.856;2023-04-25T15:28:38;3.47;;;1.10;;
67528;SDS011;54366;51.980;5.856;2023-04-25T15:31:11;3.78;;;1.00;;
67528;SDS011;54366;51.980;5.856;2023-04-25T15:33:44;5.43;;;0.85;;
67528;SDS011;54366;51.980;5.856;2023-04-25T15:36:17;4.95;;;1.15;;
67528;SDS011;54366;51.980;5.856;2023-04-25T15:38:50;4.22;;;1.05;;
67528;SDS011;54366;51.980;5.856;2023-04-25T15:41:23;5.53;;;1.20;;
67528;SDS011;54366;51.980;5.856;2023-04-25T15:43:50;4.88;;;1.00;;
67528;SDS011;54366;51.980;5.856;2023-04-25T15:46:24;3.03;;;1.00;;
67528;SDS011;54366;51.980;5.856;2023-04-25T15:48:51;5.22;;;1.30;;
67528;SDS011;54366;51.980;5.856;2023-04-25T15:51:24;3.45;;;1.02;;
67528;SDS011;54366;51.980;5.856;2023-04-25T15:53:58;3.38;;;1.10;;
67528;SDS011;54366;51.980;5.856;2023-04-25T15:56:25;3.78;;;1.00;;
67528;SDS011;54366;51.980;5.856;2023-04-25T15:58:58;4.43;;;1.05;;